Haden II — WDF2064 — position and weather

sailwx.info

Track history (hours):
 
Tides and Currents Weather Stations Pressure Air Temp Water Temp Dewpoint Dewpoint Depression Visibility Wind Speed Wind Dir Waves Ship Positions

Haden II

Owner: G & H Towing Company, Galveston, TX. More information available from US FCC via Universal Licensing System and Coast Guard Vessel Documentation Center.

Last reported at 2017-Nov-23 04:08 UTC. Time now 2017-Nov-23 09:43 UTC.
Position N 29°45' W 095°11'.

Length 27 m; draft 4 m.

Type: Sailing vessel. MMSI: 365327268.

Date/timePositionNaut miles runAvg speedWind from/ knotsBaromVisibWave heightAir tempDewpointWater temp
2017-Nov-23 04:08N 29°45' W 095°11'1 7.0
2017-Nov-23 04:00N 29°45' W 095°11'3 6.6
2017-Nov-23 03:30N 29°43' W 095°15'2 3.0
2017-Nov-23 03:00N 29°44' W 095°17'0 0.7
2017-Nov-23 02:29N 29°44' W 095°16'0 0.0
2017-Nov-23 01:56N 29°44' W 095°16'0 0.0
2017-Nov-23 01:23N 29°44' W 095°16'0 0.0
2017-Nov-23 00:59N 29°44' W 095°16'0 0.0
2017-Nov-23 00:29N 29°44' W 095°16'0 0.0
2017-Nov-22 23:59N 29°44' W 095°16'0 0.0
2017-Nov-22 23:26N 29°44' W 095°16'0 0.0
2017-Nov-22 22:59N 29°44' W 095°16'0 0.0
2017-Nov-22 22:14N 29°44' W 095°16'0 1.1
2017-Nov-22 22:00N 29°44' W 095°16'1 2.6
2017-Nov-22 21:30N 29°43' W 095°15'1 2.4
2017-Nov-22 21:00N 29°44' W 095°13'1 3.0
2017-Nov-22 20:30N 29°43' W 095°15'1 1.9
2017-Nov-22 19:57N 29°43' W 095°16'0 0.0
2017-Nov-22 19:09N 29°43' W 095°16'  
2017-Nov-19 17:59N 29°44' W 095°09'3 1.9
2017-Nov-19 16:34N 29°44' W 095°12'0 0.2
2017-Nov-19 16:30N 29°44' W 095°12'5 1.3
2017-Nov-19 12:49N 29°45' W 095°07'3 0.1
2017-Nov-17 15:18N 29°45' W 095°10'2 2.1
2017-Nov-17 14:07N 29°44' W 095°07'0 0.8
2017-Nov-17 13:58N 29°44' W 095°07'1 0.3
2017-Nov-17 12:02N 29°44' W 095°07'0 0.0
2017-Nov-17 11:59N 29°44' W 095°07'0 0.1
2017-Nov-17 08:41N 29°45' W 095°06'1 0.6
2017-Nov-17 07:29N 29°45' W 095°06'2 3.0
2017-Nov-17 06:57N 29°44' W 095°07'1 2.2
2017-Nov-17 06:28N 29°44' W 095°09'0 0.0
2017-Nov-17 05:58N 29°44' W 095°09'0 0.0
2017-Nov-17 05:19N 29°44' W 095°09'0 0.0
2017-Nov-17 04:58N 29°44' W 095°09'0 0.0
2017-Nov-17 04:16N 29°44' W 095°09'0 0.0
2017-Nov-17 03:56N 29°44' W 095°09'3 5.3
2017-Nov-17 03:25N 29°45' W 095°12'3 6.3
2017-Nov-17 02:54N 29°43' W 095°15'1 1.9
2017-Nov-17 02:25N 29°44' W 095°16'1 2.5
2017-Nov-17 01:55N 29°43' W 095°15'1 2.6
2017-Nov-17 01:21N 29°44' W 095°13'0 0.0
2017-Nov-17 00:54N 29°44' W 095°13'1 1.3
2017-Nov-17 00:30N 29°44' W 095°14'1 1.4
2017-Nov-17 00:00N 29°43' W 095°13'0 0.1
2017-Nov-16 19:34N 29°44' W 095°13'0 7.7
2017-Nov-16 19:30N 29°43' W 095°13'1 0.9
2017-Nov-16 18:55N 29°44' W 095°14'0 0.0
2017-Nov-16 18:18N 29°44' W 095°14'2 6.9
2017-Nov-16 18:00N 29°43' W 095°16'1 1.2
2017-Nov-16 17:31N 29°44' W 095°17'2 2.8
2017-Nov-16 16:58N 29°43' W 095°15'1 2.3
2017-Nov-16 16:27N 29°44' W 095°14'1 0.5
2017-Nov-16 13:35N 29°44' W 095°12'1 3.5
2017-Nov-16 13:25N 29°44' W 095°13'3 7.2
2017-Nov-16 12:59N 29°44' W 095°16'0 0.5
2017-Nov-16 12:27N 29°44' W 095°16'0 0.0
2017-Nov-16 10:59N 29°44' W 095°16'0 0.0
2017-Nov-16 10:28N 29°44' W 095°16'1 1.5
2017-Nov-16 09:59N 29°44' W 095°17'1 1.2
2017-Nov-16 09:30N 29°44' W 095°17'1 1.3
2017-Nov-16 09:00N 29°44' W 095°16'0 0.4
2017-Nov-16 08:23N 29°44' W 095°16'0 0.0
2017-Nov-16 07:59N 29°44' W 095°16'0 0.0
2017-Nov-16 07:29N 29°44' W 095°16'0 0.0
2017-Nov-16 06:47N 29°44' W 095°16'0 0.0
2017-Nov-16 06:26N 29°44' W 095°16'0 0.0
2017-Nov-16 06:00N 29°44' W 095°16'2 4.4
2017-Nov-16 05:30N 29°44' W 095°14'1 2.2
2017-Nov-16 04:59N 29°43' W 095°15'1 2.6
2017-Nov-16 04:30N 29°44' W 095°14'4 6.9
2017-Nov-16 03:58N 29°44' W 095°09'3 1.3
2017-Nov-16 01:48N 29°45' W 095°06'3 2.1
2017-Nov-16 00:30N 29°44' W 095°03'2 0.9
2017-Nov-15 22:46N 29°44' W 095°01'1 5.3
2017-Nov-15 22:30N 29°44' W 095°03'0 0.4
2017-Nov-15 22:00N 29°44' W 095°03'0 0.0
2017-Nov-15 21:30N 29°44' W 095°03'0 0.0
2017-Nov-15 20:59N 29°44' W 095°03'1 0.9
2017-Nov-15 20:26N 29°44' W 095°04'3 0.6
2017-Nov-15 15:27N 29°44' W 095°07'1 0.3
2017-Nov-15 12:37N 29°44' W 095°08'1 0.3
2017-Nov-15 08:59N 29°45' W 095°06'1 0.7
2017-Nov-15 08:11N 29°44' W 095°07'0 0.1
2017-Nov-15 07:55N 29°44' W 095°07'0 0.0
2017-Nov-15 07:28N 29°44' W 095°07'0 0.0
2017-Nov-15 06:58N 29°44' W 095°07'0 0.0
2017-Nov-15 06:25N 29°44' W 095°07'0 0.0
2017-Nov-15 05:52N 29°44' W 095°07'0 0.0
2017-Nov-15 05:28N 29°44' W 095°07'0 0.0
2017-Nov-15 05:01N 29°44' W 095°07'1 0.6
2017-Nov-15 03:33N 29°45' W 095°06'0 2.6
2017-Nov-15 03:26N 29°45' W 095°06'1 2.3
2017-Nov-15 02:52N 29°44' W 095°07'0 0.0
2017-Nov-15 02:13N 29°44' W 095°07'0 0.0
2017-Nov-15 01:58N 29°44' W 095°07'0 0.0
2017-Nov-15 01:28N 29°44' W 095°07'0 0.0
2017-Nov-14 23:40N 29°44' W 095°07'0 0.0
2017-Nov-14 20:17N 29°44' W 095°07'2 7.5
2017-Nov-14 20:00N 29°44' W 095°09'1 0.7
2017-Nov-14 18:34N 29°45' W 095°10'0 0.0
2017-Nov-14 18:25N 29°45' W 095°10'0 0.0
2017-Nov-14 17:55N 29°45' W 095°10'0 0.1
2017-Nov-14 16:56N 29°45' W 095°10'3 5.1
2017-Nov-14 16:17N 29°44' W 095°13'0 0.2
2017-Nov-14 15:47N 29°44' W 095°13'2 6.5
2017-Nov-14 15:27N 29°44' W 095°16'0 0.1
2017-Nov-14 13:06N 29°44' W 095°16'0 0.1
2017-Nov-14 13:00N 29°44' W 095°16'0 0.0
2017-Nov-14 12:27N 29°44' W 095°16'0 0.0
2017-Nov-14 11:27N 29°44' W 095°16'0 0.0
2017-Nov-14 10:57N 29°44' W 095°16'0 0.0
2017-Nov-14 10:27N 29°44' W 095°16'0 0.0
2017-Nov-14 09:54N 29°44' W 095°16'1 1.4
2017-Nov-14 09:30N 29°44' W 095°16'1 1.1
2017-Nov-14 08:55N 29°43' W 095°15'0 0.9
2017-Nov-14 08:30N 29°43' W 095°15'2 3.0
2017-Nov-14 07:57N 29°44' W 095°13'3 5.7
2017-Nov-14 07:30N 29°44' W 095°16'0 0.7
2017-Nov-14 06:57N 29°44' W 095°16'0 0.0
2017-Nov-14 06:30N 29°44' W 095°16'0 0.0
2017-Nov-14 05:03N 29°44' W 095°16'0 0.0
2017-Nov-14 04:45N 29°44' W 095°16'0 0.0
2017-Nov-14 04:15N 29°44' W 095°16'0 0.0
2017-Nov-14 04:00N 29°44' W 095°16'0 0.0
2017-Nov-14 03:27N 29°44' W 095°16'0 0.0
2017-Nov-14 01:45N 29°44' W 095°16'0 0.0
2017-Nov-14 01:27N 29°44' W 095°16'0 0.0
2017-Nov-14 00:54N 29°44' W 095°16'0 0.0
2017-Nov-14 00:30N 29°44' W 095°16'0 0.0
2017-Nov-13 23:33N 29°44' W 095°16'0 0.0
2017-Nov-13 23:30N 29°44' W 095°16'0 0.8
2017-Nov-13 22:54N 29°44' W 095°17'0 0.4
2017-Nov-13 21:45N 29°44' W 095°16'  
Track history (hours):
 
Tides and Currents Weather Stations Pressure Air Temp Water Temp Dewpoint Dewpoint Depression Visibility Wind Speed Wind Dir Waves Ship Positions

Haden II

Owner: G & H Towing Company, Galveston, TX. More information available from US FCC via Universal Licensing System and Coast Guard Vessel Documentation Center.

Last reported at 2017-Nov-23 04:08 UTC. Time now 2017-Nov-23 09:43 UTC.
Position N 29°45' W 095°11'.

Length 27 m; draft 4 m.

Type: Sailing vessel. MMSI: 365327268.

Date/timePositionNaut miles runAvg speedWind from/ knotsBaromVisibWave heightAir tempDewpointWater temp
2017-Nov-23 04:08N 29°45' W 095°11'1 7.0
2017-Nov-23 04:00N 29°45' W 095°11'3 6.6
2017-Nov-23 03:30N 29°43' W 095°15'2 3.0
2017-Nov-23 03:00N 29°44' W 095°17'0 0.7
2017-Nov-23 02:29N 29°44' W 095°16'0 0.0
2017-Nov-23 01:56N 29°44' W 095°16'0 0.0
2017-Nov-23 01:23N 29°44' W 095°16'0 0.0
2017-Nov-23 00:59N 29°44' W 095°16'0 0.0
2017-Nov-23 00:29N 29°44' W 095°16'0 0.0
2017-Nov-22 23:59N 29°44' W 095°16'0 0.0
2017-Nov-22 23:26N 29°44' W 095°16'0 0.0
2017-Nov-22 22:59N 29°44' W 095°16'0 0.0
2017-Nov-22 22:14N 29°44' W 095°16'0 1.1
2017-Nov-22 22:00N 29°44' W 095°16'1 2.6
2017-Nov-22 21:30N 29°43' W 095°15'1 2.4
2017-Nov-22 21:00N 29°44' W 095°13'1 3.0
2017-Nov-22 20:30N 29°43' W 095°15'1 1.9
2017-Nov-22 19:57N 29°43' W 095°16'0 0.0
2017-Nov-22 19:09N 29°43' W 095°16'  
2017-Nov-19 17:59N 29°44' W 095°09'3 1.9
2017-Nov-19 16:34N 29°44' W 095°12'0 0.2
2017-Nov-19 16:30N 29°44' W 095°12'5 1.3
2017-Nov-19 12:49N 29°45' W 095°07'3 0.1
2017-Nov-17 15:18N 29°45' W 095°10'2 2.1
2017-Nov-17 14:07N 29°44' W 095°07'0 0.8
2017-Nov-17 13:58N 29°44' W 095°07'1 0.3
2017-Nov-17 12:02N 29°44' W 095°07'0 0.0
2017-Nov-17 11:59N 29°44' W 095°07'0 0.1
2017-Nov-17 08:41N 29°45' W 095°06'1 0.6
2017-Nov-17 07:29N 29°45' W 095°06'2 3.0
2017-Nov-17 06:57N 29°44' W 095°07'1 2.2
2017-Nov-17 06:28N 29°44' W 095°09'0 0.0
2017-Nov-17 05:58N 29°44' W 095°09'0 0.0
2017-Nov-17 05:19N 29°44' W 095°09'0 0.0
2017-Nov-17 04:58N 29°44' W 095°09'0 0.0
2017-Nov-17 04:16N 29°44' W 095°09'0 0.0
2017-Nov-17 03:56N 29°44' W 095°09'3 5.3
2017-Nov-17 03:25N 29°45' W 095°12'3 6.3
2017-Nov-17 02:54N 29°43' W 095°15'1 1.9
2017-Nov-17 02:25N 29°44' W 095°16'1 2.5
2017-Nov-17 01:55N 29°43' W 095°15'1 2.6
2017-Nov-17 01:21N 29°44' W 095°13'0 0.0
2017-Nov-17 00:54N 29°44' W 095°13'1 1.3
2017-Nov-17 00:30N 29°44' W 095°14'1 1.4
2017-Nov-17 00:00N 29°43' W 095°13'0 0.1
2017-Nov-16 19:34N 29°44' W 095°13'0 7.7
2017-Nov-16 19:30N 29°43' W 095°13'1 0.9
2017-Nov-16 18:55N 29°44' W 095°14'0 0.0
2017-Nov-16 18:18N 29°44' W 095°14'2 6.9
2017-Nov-16 18:00N 29°43' W 095°16'1 1.2
2017-Nov-16 17:31N 29°44' W 095°17'2 2.8
2017-Nov-16 16:58N 29°43' W 095°15'1 2.3
2017-Nov-16 16:27N 29°44' W 095°14'1 0.5
2017-Nov-16 13:35N 29°44' W 095°12'1 3.5
2017-Nov-16 13:25N 29°44' W 095°13'3 7.2
2017-Nov-16 12:59N 29°44' W 095°16'0 0.5
2017-Nov-16 12:27N 29°44' W 095°16'0 0.0
2017-Nov-16 10:59N 29°44' W 095°16'0 0.0
2017-Nov-16 10:28N 29°44' W 095°16'1 1.5
2017-Nov-16 09:59N 29°44' W 095°17'1 1.2
2017-Nov-16 09:30N 29°44' W 095°17'1 1.3
2017-Nov-16 09:00N 29°44' W 095°16'0 0.4
2017-Nov-16 08:23N 29°44' W 095°16'0 0.0
2017-Nov-16 07:59N 29°44' W 095°16'0 0.0
2017-Nov-16 07:29N 29°44' W 095°16'0 0.0
2017-Nov-16 06:47N 29°44' W 095°16'0 0.0
2017-Nov-16 06:26N 29°44' W 095°16'0 0.0
2017-Nov-16 06:00N 29°44' W 095°16'2 4.4
2017-Nov-16 05:30N 29°44' W 095°14'1 2.2
2017-Nov-16 04:59N 29°43' W 095°15'1 2.6
2017-Nov-16 04:30N 29°44' W 095°14'4 6.9
2017-Nov-16 03:58N 29°44' W 095°09'3 1.3
2017-Nov-16 01:48N 29°45' W 095°06'3 2.1
2017-Nov-16 00:30N 29°44' W 095°03'2 0.9
2017-Nov-15 22:46N 29°44' W 095°01'1 5.3
2017-Nov-15 22:30N 29°44' W 095°03'0 0.4
2017-Nov-15 22:00N 29°44' W 095°03'0 0.0
2017-Nov-15 21:30N 29°44' W 095°03'0 0.0
2017-Nov-15 20:59N 29°44' W 095°03'1 0.9
2017-Nov-15 20:26N 29°44' W 095°04'3 0.6
2017-Nov-15 15:27N 29°44' W 095°07'1 0.3
2017-Nov-15 12:37N 29°44' W 095°08'1 0.3
2017-Nov-15 08:59N 29°45' W 095°06'1 0.7
2017-Nov-15 08:11N 29°44' W 095°07'0 0.1
2017-Nov-15 07:55N 29°44' W 095°07'0 0.0
2017-Nov-15 07:28N 29°44' W 095°07'0 0.0
2017-Nov-15 06:58N 29°44' W 095°07'0 0.0
2017-Nov-15 06:25N 29°44' W 095°07'0 0.0
2017-Nov-15 05:52N 29°44' W 095°07'0 0.0
2017-Nov-15 05:28N 29°44' W 095°07'0 0.0
2017-Nov-15 05:01N 29°44' W 095°07'1 0.6
2017-Nov-15 03:33N 29°45' W 095°06'0 2.6
2017-Nov-15 03:26N 29°45' W 095°06'1 2.3
2017-Nov-15 02:52N 29°44' W 095°07'0 0.0
2017-Nov-15 02:13N 29°44' W 095°07'0 0.0
2017-Nov-15 01:58N 29°44' W 095°07'0 0.0
2017-Nov-15 01:28N 29°44' W 095°07'0 0.0
2017-Nov-14 23:40N 29°44' W 095°07'0 0.0
2017-Nov-14 20:17N 29°44' W 095°07'2 7.5
2017-Nov-14 20:00N 29°44' W 095°09'1 0.7
2017-Nov-14 18:34N 29°45' W 095°10'0 0.0
2017-Nov-14 18:25N 29°45' W 095°10'0 0.0
2017-Nov-14 17:55N 29°45' W 095°10'0 0.1
2017-Nov-14 16:56N 29°45' W 095°10'3 5.1
2017-Nov-14 16:17N 29°44' W 095°13'0 0.2
2017-Nov-14 15:47N 29°44' W 095°13'2 6.5
2017-Nov-14 15:27N 29°44' W 095°16'0 0.1
2017-Nov-14 13:06N 29°44' W 095°16'0 0.1
2017-Nov-14 13:00N 29°44' W 095°16'0 0.0
2017-Nov-14 12:27N 29°44' W 095°16'0 0.0
2017-Nov-14 11:27N 29°44' W 095°16'0 0.0
2017-Nov-14 10:57N 29°44' W 095°16'0 0.0
2017-Nov-14 10:27N 29°44' W 095°16'0 0.0
2017-Nov-14 09:54N 29°44' W 095°16'1 1.4
2017-Nov-14 09:30N 29°44' W 095°16'1 1.1
2017-Nov-14 08:55N 29°43' W 095°15'0 0.9
2017-Nov-14 08:30N 29°43' W 095°15'2 3.0
2017-Nov-14 07:57N 29°44' W 095°13'3 5.7
2017-Nov-14 07:30N 29°44' W 095°16'0 0.7
2017-Nov-14 06:57N 29°44' W 095°16'0 0.0
2017-Nov-14 06:30N 29°44' W 095°16'0 0.0
2017-Nov-14 05:03N 29°44' W 095°16'0 0.0
2017-Nov-14 04:45N 29°44' W 095°16'0 0.0
2017-Nov-14 04:15N 29°44' W 095°16'0 0.0
2017-Nov-14 04:00N 29°44' W 095°16'0 0.0
2017-Nov-14 03:27N 29°44' W 095°16'0 0.0
2017-Nov-14 01:45N 29°44' W 095°16'0 0.0
2017-Nov-14 01:27N 29°44' W 095°16'0 0.0
2017-Nov-14 00:54N 29°44' W 095°16'0 0.0
2017-Nov-14 00:30N 29°44' W 095°16'0 0.0
2017-Nov-13 23:33N 29°44' W 095°16'0 0.0
2017-Nov-13 23:30N 29°44' W 095°16'0 0.8
2017-Nov-13 22:54N 29°44' W 095°17'0 0.4
2017-Nov-13 21:45N 29°44' W 095°16'  

Dump ship's entire track history